KEDN

Details ICAO KEDN
Name Enterprise Muni
Region United States
Timezone America/Chicago (UTC-5.0)
Plans Departing 10
Arriving 18
Stats Elevation 361 ft / 110 m (AMSL)
Location 31.299710° -85.899832°
Runways 1
Magnetic Variation 3.828° W
Sunrise 2018-05-26 10:43:22 UTC / 2018-05-26 05:43:22 Local
Sunset 2018-05-27 00:40:51 UTC / 2018-05-26 19:40:51 Local
Advertisement - Login to hide

Runways

ID Width Length Bearing (true) Bearing (mag) Surface Threshold Offset Overrun Length
05 108 ft / 33 m 5,109 ft / 1,557 m 51.79° 55.62° Asphalt 0 ft / 0 m 0 ft / 0 m
23 108 ft / 33 m 5,109 ft / 1,557 m 231.80° 235.63° Asphalt 0 ft / 0 m 0 ft / 0 m

Map

Weather


0- 5 10 15 20 25 30 35+ Temperature / ° C

Clouds and Precipitation
Forecast for 2018-05-26 06:00 UTC. Updated 6 hours ago

Ground ~20,000 ft ~40,000 ft Winds

METAR

KEDN 261055Z AUTO 00000KT M1/4SM FG OVC002 20/20 A2993 RMK AO2 T02010201

TAF

Not found

Frequencies

Unicom 122.80 MHz CTAF/UNICOM
Approach 133.45 MHz CAIRNS APP/DEP
Warning: Do not use this data for real-world aviation or navigation. No guarantee of current accuracy is given.